sensor_id;sensor_type;location;lat;lon;timestamp;P1;durP1;ratioP1;P2;durP2;ratioP2
4889;SDS011;2459;42.268;23.112;2023-05-16T00:00:21;30.43;;;16.30;;
4889;SDS011;2459;42.268;23.112;2023-05-16T00:02:49;24.13;;;15.50;;
4889;SDS011;2459;42.268;23.112;2023-05-16T00:05:15;37.70;;;19.43;;
4889;SDS011;2459;42.268;23.112;2023-05-16T00:07:43;28.53;;;13.43;;
4889;SDS011;2459;42.268;23.112;2023-05-16T00:10:10;40.27;;;16.83;;
4889;SDS011;2459;42.268;23.112;2023-05-16T00:12:38;29.00;;;16.80;;
4889;SDS011;2459;42.268;23.112;2023-05-16T00:15:05;25.70;;;16.40;;
4889;SDS011;2459;42.268;23.112;2023-05-16T00:17:33;29.03;;;16.23;;
4889;SDS011;2459;42.268;23.112;2023-05-16T00:20:05;22.80;;;14.83;;
4889;SDS011;2459;42.268;23.112;2023-05-16T00:22:33;28.83;;;14.20;;
4889;SDS011;2459;42.268;23.112;2023-05-16T00:24:59;24.47;;;16.50;;
4889;SDS011;2459;42.268;23.112;2023-05-16T00:27:26;30.07;;;16.90;;
4889;SDS011;2459;42.268;23.112;2023-05-16T00:29:57;30.20;;;18.17;;
4889;SDS011;2459;42.268;23.112;2023-05-16T00:32:23;34.33;;;18.90;;
4889;SDS011;2459;42.268;23.112;2023-05-16T00:34:49;28.77;;;15.27;;
4889;SDS011;2459;42.268;23.112;2023-05-16T00:37:16;25.00;;;16.97;;
4889;SDS011;2459;42.268;23.112;2023-05-16T00:39:42;20.53;;;12.17;;
4889;SDS011;2459;42.268;23.112;2023-05-16T00:42:09;22.57;;;17.17;;
4889;SDS011;2459;42.268;23.112;2023-05-16T00:44:38;37.50;;;17.90;;
4889;SDS011;2459;42.268;23.112;2023-05-16T00:47:06;30.47;;;16.33;;
4889;SDS011;2459;42.268;23.112;2023-05-16T00:49:36;24.13;;;15.37;;
4889;SDS011;2459;42.268;23.112;2023-05-16T00:52:02;28.17;;;17.07;;
4889;SDS011;2459;42.268;23.112;2023-05-16T00:54:29;21.77;;;15.03;;
4889;SDS011;2459;42.268;23.112;2023-05-16T00:56:56;25.23;;;16.80;;
4889;SDS011;2459;42.268;23.112;2023-05-16T00:59:23;37.40;;;15.43;;
4889;SDS011;2459;42.268;23.112;2023-05-16T01:01:50;27.43;;;15.50;;
4889;SDS011;2459;42.268;23.112;2023-05-16T01:04:18;28.10;;;15.87;;
4889;SDS011;2459;42.268;23.112;2023-05-16T01:06:45;25.37;;;15.70;;
4889;SDS011;2459;42.268;23.112;2023-05-16T01:09:12;20.83;;;14.37;;
4889;SDS011;2459;42.268;23.112;2023-05-16T01:11:40;21.00;;;13.90;;
4889;SDS011;2459;42.268;23.112;2023-05-16T01:14:10;22.53;;;14.97;;
4889;SDS011;2459;42.268;23.112;2023-05-16T01:16:39;29.93;;;17.37;;
4889;SDS011;2459;42.268;23.112;2023-05-16T01:19:09;21.47;;;14.73;;
4889;SDS011;2459;42.268;23.112;2023-05-16T01:21:43;31.23;;;15.13;;
4889;SDS011;2459;42.268;23.112;2023-05-16T01:24:13;22.97;;;17.60;;
4889;SDS011;2459;42.268;23.112;2023-05-16T01:26:46;22.70;;;15.50;;
4889;SDS011;2459;42.268;23.112;2023-05-16T01:29:13;42.67;;;19.50;;
4889;SDS011;2459;42.268;23.112;2023-05-16T01:31:40;26.17;;;14.83;;
4889;SDS011;2459;42.268;23.112;2023-05-16T01:34:07;25.17;;;16.17;;
4889;SDS011;2459;42.268;23.112;2023-05-16T01:36:35;22.10;;;15.90;;
4889;SDS011;2459;42.268;23.112;2023-05-16T01:39:19;21.40;;;14.77;;
4889;SDS011;2459;42.268;23.112;2023-05-16T01:41:50;26.87;;;13.70;;
4889;SDS011;2459;42.268;23.112;2023-05-16T01:44:19;23.03;;;15.40;;
4889;SDS011;2459;42.268;23.112;2023-05-16T01:46:47;25.70;;;16.03;;
4889;SDS011;2459;42.268;23.112;2023-05-16T01:49:19;28.60;;;15.20;;
4889;SDS011;2459;42.268;23.112;2023-05-16T01:51:49;23.90;;;14.87;;
4889;SDS011;2459;42.268;23.112;2023-05-16T01:54:19;27.73;;;16.50;;
4889;SDS011;2459;42.268;23.112;2023-05-16T01:56:51;25.60;;;15.07;;
4889;SDS011;2459;42.268;23.112;2023-05-16T01:59:18;31.70;;;17.17;;
4889;SDS011;2459;42.268;23.112;2023-05-16T02:01:45;28.97;;;17.63;;
4889;SDS011;2459;42.268;23.112;2023-05-16T02:04:12;25.17;;;16.00;;
4889;SDS011;2459;42.268;23.112;2023-05-16T02:06:39;26.10;;;15.70;;
4889;SDS011;2459;42.268;23.112;2023-05-16T02:09:05;23.43;;;15.40;;
4889;SDS011;2459;42.268;23.112;2023-05-16T02:11:32;35.47;;;16.17;;
4889;SDS011;2459;42.268;23.112;2023-05-16T02:14:01;31.90;;;15.37;;
4889;SDS011;2459;42.268;23.112;2023-05-16T02:18:54;19.80;;;14.33;;
4889;SDS011;2459;42.268;23.112;2023-05-16T02:21:21;20.93;;;15.77;;
4889;SDS011;2459;42.268;23.112;2023-05-16T02:23:48;21.70;;;13.23;;
4889;SDS011;2459;42.268;23.112;2023-05-16T02:26:14;28.07;;;15.03;;
4889;SDS011;2459;42.268;23.112;2023-05-16T02:28:40;20.67;;;13.70;;
4889;SDS011;2459;42.268;23.112;2023-05-16T02:31:08;27.83;;;14.00;;
4889;SDS011;2459;42.268;23.112;2023-05-16T02:33:35;22.93;;;14.30;;
4889;SDS011;2459;42.268;23.112;2023-05-16T02:36:01;24.60;;;14.60;;
4889;SDS011;2459;42.268;23.112;2023-05-16T02:38:27;29.13;;;14.53;;
4889;SDS011;2459;42.268;23.112;2023-05-16T02:40:54;26.93;;;14.17;;
4889;SDS011;2459;42.268;23.112;2023-05-16T02:43:20;28.47;;;13.97;;
4889;SDS011;2459;42.268;23.112;2023-05-16T02:45:47;22.80;;;14.90;;
4889;SDS011;2459;42.268;23.112;2023-05-16T02:48:17;32.80;;;13.90;;
4889;SDS011;2459;42.268;23.112;2023-05-16T02:50:44;31.50;;;15.20;;
4889;SDS011;2459;42.268;23.112;2023-05-16T02:53:10;18.40;;;12.63;;
4889;SDS011;2459;42.268;23.112;2023-05-16T02:55:37;22.40;;;14.63;;
4889;SDS011;2459;42.268;23.112;2023-05-16T02:58:04;33.07;;;15.00;;
4889;SDS011;2459;42.268;23.112;2023-05-16T03:00:30;23.03;;;14.40;;
4889;SDS011;2459;42.268;23.112;2023-05-16T03:02:57;27.47;;;15.33;;
4889;SDS011;2459;42.268;23.112;2023-05-16T03:05:24;21.97;;;14.70;;
4889;SDS011;2459;42.268;23.112;2023-05-16T03:07:51;26.90;;;14.60;;
4889;SDS011;2459;42.268;23.112;2023-05-16T03:10:17;26.27;;;16.40;;
4889;SDS011;2459;42.268;23.112;2023-05-16T03:12:44;36.43;;;15.47;;
4889;SDS011;2459;42.268;23.112;2023-05-16T03:15:10;28.60;;;15.87;;
4889;SDS011;2459;42.268;23.112;2023-05-16T03:17:36;20.50;;;12.70;;
4889;SDS011;2459;42.268;23.112;2023-05-16T03:20:03;28.23;;;13.93;;
4889;SDS011;2459;42.268;23.112;2023-05-16T03:22:34;20.93;;;13.50;;
4889;SDS011;2459;42.268;23.112;2023-05-16T03:25:01;24.17;;;14.67;;
4889;SDS011;2459;42.268;23.112;2023-05-16T03:27:28;15.70;;;10.83;;
4889;SDS011;2459;42.268;23.112;2023-05-16T03:29:54;23.73;;;15.57;;
4889;SDS011;2459;42.268;23.112;2023-05-16T03:32:21;25.07;;;14.73;;
4889;SDS011;2459;42.268;23.112;2023-05-16T03:34:47;27.93;;;15.00;;
4889;SDS011;2459;42.268;23.112;2023-05-16T03:37:13;33.20;;;15.20;;
4889;SDS011;2459;42.268;23.112;2023-05-16T03:39:41;21.03;;;15.60;;
4889;SDS011;2459;42.268;23.112;2023-05-16T03:42:08;23.93;;;13.60;;
4889;SDS011;2459;42.268;23.112;2023-05-16T03:44:34;30.80;;;15.87;;
4889;SDS011;2459;42.268;23.112;2023-05-16T03:47:01;25.10;;;15.77;;
4889;SDS011;2459;42.268;23.112;2023-05-16T03:49:27;28.70;;;15.17;;
4889;SDS011;2459;42.268;23.112;2023-05-16T03:51:54;29.63;;;15.83;;
4889;SDS011;2459;42.268;23.112;2023-05-16T03:54:21;27.47;;;17.00;;
4889;SDS011;2459;42.268;23.112;2023-05-16T03:56:49;24.10;;;16.07;;
4889;SDS011;2459;42.268;23.112;2023-05-16T03:59:16;29.40;;;17.00;;
4889;SDS011;2459;42.268;23.112;2023-05-16T04:01:42;32.43;;;16.87;;
4889;SDS011;2459;42.268;23.112;2023-05-16T04:04:09;28.10;;;15.90;;
4889;SDS011;2459;42.268;23.112;2023-05-16T04:06:35;20.70;;;15.60;;
4889;SDS011;2459;42.268;23.112;2023-05-16T04:09:02;32.80;;;16.00;;
4889;SDS011;2459;42.268;23.112;2023-05-16T04:11:28;42.70;;;17.07;;
4889;SDS011;2459;42.268;23.112;2023-05-16T04:13:56;43.00;;;16.70;;
4889;SDS011;2459;42.268;23.112;2023-05-16T04:16:26;27.40;;;16.87;;
4889;SDS011;2459;42.268;23.112;2023-05-16T04:18:52;42.10;;;16.80;;
4889;SDS011;2459;42.268;23.112;2023-05-16T04:21:18;20.80;;;14.33;;
4889;SDS011;2459;42.268;23.112;2023-05-16T04:23:45;27.47;;;15.03;;
4889;SDS011;2459;42.268;23.112;2023-05-16T04:26:13;24.20;;;14.93;;
4889;SDS011;2459;42.268;23.112;2023-05-16T04:28:40;20.07;;;14.47;;
4889;SDS011;2459;42.268;23.112;2023-05-16T04:31:07;21.00;;;14.17;;
4889;SDS011;2459;42.268;23.112;2023-05-16T04:33:38;23.70;;;14.17;;
4889;SDS011;2459;42.268;23.112;2023-05-16T04:36:04;23.67;;;14.57;;
4889;SDS011;2459;42.268;23.112;2023-05-16T04:38:31;25.67;;;16.00;;
4889;SDS011;2459;42.268;23.112;2023-05-16T04:40:58;29.03;;;17.17;;
4889;SDS011;2459;42.268;23.112;2023-05-16T04:43:24;25.37;;;15.33;;
4889;SDS011;2459;42.268;23.112;2023-05-16T04:45:51;32.50;;;18.00;;
4889;SDS011;2459;42.268;23.112;2023-05-16T04:48:21;21.63;;;15.80;;
4889;SDS011;2459;42.268;23.112;2023-05-16T04:50:47;29.83;;;16.00;;
4889;SDS011;2459;42.268;23.112;2023-05-16T04:53:14;26.80;;;15.17;;
4889;SDS011;2459;42.268;23.112;2023-05-16T04:55:40;27.57;;;15.97;;
4889;SDS011;2459;42.268;23.112;2023-05-16T04:58:07;30.00;;;14.97;;
4889;SDS011;2459;42.268;23.112;2023-05-16T05:00:33;38.23;;;16.00;;
4889;SDS011;2459;42.268;23.112;2023-05-16T05:02:59;50.90;;;19.30;;
4889;SDS011;2459;42.268;23.112;2023-05-16T05:05:27;39.43;;;21.47;;
4889;SDS011;2459;42.268;23.112;2023-05-16T05:07:54;37.27;;;18.37;;
4889;SDS011;2459;42.268;23.112;2023-05-16T05:10:22;36.20;;;17.37;;
4889;SDS011;2459;42.268;23.112;2023-05-16T05:12:49;42.10;;;18.30;;
4889;SDS011;2459;42.268;23.112;2023-05-16T05:15:15;47.20;;;19.37;;
4889;SDS011;2459;42.268;23.112;2023-05-16T05:17:43;31.30;;;20.00;;
4889;SDS011;2459;42.268;23.112;2023-05-16T05:20:10;28.07;;;15.60;;
4889;SDS011;2459;42.268;23.112;2023-05-16T05:22:38;34.70;;;21.40;;
4889;SDS011;2459;42.268;23.112;2023-05-16T05:25:05;25.73;;;17.03;;
4889;SDS011;2459;42.268;23.112;2023-05-16T05:27:32;23.17;;;15.63;;
4889;SDS011;2459;42.268;23.112;2023-05-16T05:29:58;26.27;;;15.83;;
4889;SDS011;2459;42.268;23.112;2023-05-16T05:32:25;38.67;;;16.23;;
4889;SDS011;2459;42.268;23.112;2023-05-16T05:34:51;37.63;;;15.50;;
4889;SDS011;2459;42.268;23.112;2023-05-16T05:37:18;25.00;;;14.73;;
4889;SDS011;2459;42.268;23.112;2023-05-16T05:39:45;24.37;;;15.50;;
4889;SDS011;2459;42.268;23.112;2023-05-16T05:42:12;37.10;;;17.70;;
4889;SDS011;2459;42.268;23.112;2023-05-16T05:44:38;30.27;;;15.67;;
4889;SDS011;2459;42.268;23.112;2023-05-16T05:47:05;28.93;;;16.73;;
4889;SDS011;2459;42.268;23.112;2023-05-16T05:49:32;31.00;;;16.50;;
4889;SDS011;2459;42.268;23.112;2023-05-16T05:52:00;31.37;;;16.60;;
4889;SDS011;2459;42.268;23.112;2023-05-16T05:54:26;32.87;;;15.90;;
4889;SDS011;2459;42.268;23.112;2023-05-16T05:56:57;32.60;;;14.60;;
4889;SDS011;2459;42.268;23.112;2023-05-16T05:59:23;21.80;;;14.20;;
4889;SDS011;2459;42.268;23.112;2023-05-16T06:01:50;22.20;;;11.87;;
4889;SDS011;2459;42.268;23.112;2023-05-16T06:04:17;22.93;;;12.90;;
4889;SDS011;2459;42.268;23.112;2023-05-16T06:06:43;23.60;;;13.30;;
4889;SDS011;2459;42.268;23.112;2023-05-16T06:09:10;22.10;;;14.60;;
4889;SDS011;2459;42.268;23.112;2023-05-16T06:11:37;28.20;;;14.50;;
4889;SDS011;2459;42.268;23.112;2023-05-16T06:14:05;28.17;;;15.60;;
4889;SDS011;2459;42.268;23.112;2023-05-16T06:16:32;25.20;;;15.77;;
4889;SDS011;2459;42.268;23.112;2023-05-16T06:18:58;46.90;;;19.13;;
4889;SDS011;2459;42.268;23.112;2023-05-16T06:21:25;26.10;;;16.20;;
4889;SDS011;2459;42.268;23.112;2023-05-16T06:23:51;27.03;;;16.17;;
4889;SDS011;2459;42.268;23.112;2023-05-16T06:26:18;30.80;;;16.53;;
4889;SDS011;2459;42.268;23.112;2023-05-16T06:28:46;34.70;;;16.70;;
4889;SDS011;2459;42.268;23.112;2023-05-16T06:31:14;25.23;;;13.50;;
4889;SDS011;2459;42.268;23.112;2023-05-16T06:33:40;23.47;;;13.77;;
4889;SDS011;2459;42.268;23.112;2023-05-16T06:36:07;22.00;;;14.13;;
4889;SDS011;2459;42.268;23.112;2023-05-16T06:38:34;53.50;;;15.20;;
4889;SDS011;2459;42.268;23.112;2023-05-16T06:41:00;27.50;;;15.97;;
4889;SDS011;2459;42.268;23.112;2023-05-16T06:43:28;40.83;;;16.97;;
4889;SDS011;2459;42.268;23.112;2023-05-16T06:45:54;28.20;;;13.87;;
4889;SDS011;2459;42.268;23.112;2023-05-16T06:48:25;22.23;;;14.37;;
4889;SDS011;2459;42.268;23.112;2023-05-16T06:50:51;19.30;;;12.90;;
4889;SDS011;2459;42.268;23.112;2023-05-16T06:53:18;26.73;;;12.60;;
4889;SDS011;2459;42.268;23.112;2023-05-16T06:55:45;13.07;;;10.60;;
4889;SDS011;2459;42.268;23.112;2023-05-16T06:58:14;20.20;;;13.47;;
4889;SDS011;2459;42.268;23.112;2023-05-16T07:00:41;29.93;;;11.40;;
4889;SDS011;2459;42.268;23.112;2023-05-16T07:03:08;24.87;;;13.17;;
4889;SDS011;2459;42.268;23.112;2023-05-16T07:05:36;23.57;;;13.10;;
4889;SDS011;2459;42.268;23.112;2023-05-16T07:08:02;24.67;;;12.37;;
4889;SDS011;2459;42.268;23.112;2023-05-16T07:10:29;19.70;;;12.80;;
4889;SDS011;2459;42.268;23.112;2023-05-16T07:12:55;21.50;;;13.67;;
4889;SDS011;2459;42.268;23.112;2023-05-16T07:15:22;21.70;;;14.77;;
4889;SDS011;2459;42.268;23.112;2023-05-16T07:17:48;21.47;;;13.77;;
4889;SDS011;2459;42.268;23.112;2023-05-16T07:20:15;24.07;;;14.43;;
4889;SDS011;2459;42.268;23.112;2023-05-16T07:22:43;43.23;;;13.47;;
4889;SDS011;2459;42.268;23.112;2023-05-16T07:25:10;17.93;;;12.10;;
4889;SDS011;2459;42.268;23.112;2023-05-16T07:27:38;25.30;;;12.50;;
4889;SDS011;2459;42.268;23.112;2023-05-16T07:30:06;28.77;;;12.67;;
4889;SDS011;2459;42.268;23.112;2023-05-16T07:32:33;19.87;;;12.87;;
4889;SDS011;2459;42.268;23.112;2023-05-16T07:34:59;16.83;;;12.23;;
4889;SDS011;2459;42.268;23.112;2023-05-16T07:37:26;18.30;;;10.63;;
4889;SDS011;2459;42.268;23.112;2023-05-16T07:39:54;18.00;;;10.43;;
4889;SDS011;2459;42.268;23.112;2023-05-16T07:42:21;19.53;;;11.03;;
4889;SDS011;2459;42.268;23.112;2023-05-16T07:44:47;14.00;;;10.47;;
4889;SDS011;2459;42.268;23.112;2023-05-16T07:47:15;19.77;;;11.00;;
4889;SDS011;2459;42.268;23.112;2023-05-16T07:49:41;24.30;;;11.53;;
4889;SDS011;2459;42.268;23.112;2023-05-16T07:52:08;18.73;;;10.73;;
4889;SDS011;2459;42.268;23.112;2023-05-16T07:54:34;18.27;;;10.20;;
4889;SDS011;2459;42.268;23.112;2023-05-16T07:57:02;21.03;;;10.13;;
4889;SDS011;2459;42.268;23.112;2023-05-16T07:59:29;24.13;;;10.23;;
4889;SDS011;2459;42.268;23.112;2023-05-16T08:01:55;17.60;;;9.87;;
4889;SDS011;2459;42.268;23.112;2023-05-16T08:04:22;15.53;;;9.47;;
4889;SDS011;2459;42.268;23.112;2023-05-16T08:06:48;11.07;;;8.67;;
4889;SDS011;2459;42.268;23.112;2023-05-16T08:09:15;16.93;;;8.30;;
4889;SDS011;2459;42.268;23.112;2023-05-16T08:11:41;20.03;;;10.37;;
4889;SDS011;2459;42.268;23.112;2023-05-16T08:14:10;12.07;;;8.40;;
4889;SDS011;2459;42.268;23.112;2023-05-16T08:16:37;20.20;;;8.90;;
4889;SDS011;2459;42.268;23.112;2023-05-16T08:19:03;19.17;;;9.33;;
4889;SDS011;2459;42.268;23.112;2023-05-16T08:21:30;22.93;;;8.83;;
4889;SDS011;2459;42.268;23.112;2023-05-16T08:23:57;18.20;;;8.03;;
4889;SDS011;2459;42.268;23.112;2023-05-16T08:26:23;17.23;;;7.83;;
4889;SDS011;2459;42.268;23.112;2023-05-16T08:28:50;20.50;;;9.13;;
4889;SDS011;2459;42.268;23.112;2023-05-16T08:31:18;13.93;;;6.73;;
4889;SDS011;2459;42.268;23.112;2023-05-16T08:33:47;15.60;;;9.93;;
4889;SDS011;2459;42.268;23.112;2023-05-16T08:36:14;14.03;;;8.70;;
4889;SDS011;2459;42.268;23.112;2023-05-16T08:38:43;14.50;;;10.13;;
4889;SDS011;2459;42.268;23.112;2023-05-16T08:41:10;14.43;;;10.37;;
4889;SDS011;2459;42.268;23.112;2023-05-16T08:43:36;14.60;;;10.00;;
4889;SDS011;2459;42.268;23.112;2023-05-16T08:46:03;15.27;;;10.37;;
4889;SDS011;2459;42.268;23.112;2023-05-16T08:48:31;15.33;;;8.57;;
4889;SDS011;2459;42.268;23.112;2023-05-16T08:50:58;14.80;;;10.43;;
4889;SDS011;2459;42.268;23.112;2023-05-16T08:53:26;10.47;;;6.90;;
4889;SDS011;2459;42.268;23.112;2023-05-16T08:55:55;11.17;;;8.37;;
4889;SDS011;2459;42.268;23.112;2023-05-16T08:58:23;9.03;;;5.57;;
4889;SDS011;2459;42.268;23.112;2023-05-16T09:00:50;18.93;;;9.57;;
4889;SDS011;2459;42.268;23.112;2023-05-16T09:03:16;21.33;;;9.90;;
4889;SDS011;2459;42.268;23.112;2023-05-16T09:05:46;18.13;;;9.90;;
4889;SDS011;2459;42.268;23.112;2023-05-16T09:08:14;26.43;;;8.33;;
4889;SDS011;2459;42.268;23.112;2023-05-16T09:10:40;28.23;;;9.93;;
4889;SDS011;2459;42.268;23.112;2023-05-16T09:13:07;22.33;;;9.17;;
4889;SDS011;2459;42.268;23.112;2023-05-16T09:15:33;13.50;;;7.90;;
4889;SDS011;2459;42.268;23.112;2023-05-16T09:18:00;11.20;;;8.00;;
4889;SDS011;2459;42.268;23.112;2023-05-16T09:20:26;14.33;;;8.33;;
4889;SDS011;2459;42.268;23.112;2023-05-16T09:22:55;10.10;;;7.20;;
4889;SDS011;2459;42.268;23.112;2023-05-16T09:25:22;10.63;;;7.27;;
4889;SDS011;2459;42.268;23.112;2023-05-16T09:27:53;18.27;;;7.73;;
4889;SDS011;2459;42.268;23.112;2023-05-16T09:30:20;16.73;;;6.50;;
4889;SDS011;2459;42.268;23.112;2023-05-16T09:32:46;17.47;;;8.37;;
4889;SDS011;2459;42.268;23.112;2023-05-16T09:35:14;38.67;;;9.80;;
4889;SDS011;2459;42.268;23.112;2023-05-16T09:37:43;28.37;;;8.77;;
4889;SDS011;2459;42.268;23.112;2023-05-16T09:40:11;13.57;;;8.17;;
4889;SDS011;2459;42.268;23.112;2023-05-16T09:42:37;19.60;;;7.30;;
4889;SDS011;2459;42.268;23.112;2023-05-16T09:45:04;13.40;;;10.13;;
4889;SDS011;2459;42.268;23.112;2023-05-16T09:47:31;19.10;;;9.33;;
4889;SDS011;2459;42.268;23.112;2023-05-16T09:49:58;20.57;;;10.20;;
4889;SDS011;2459;42.268;23.112;2023-05-16T09:52:25;16.97;;;10.17;;
4889;SDS011;2459;42.268;23.112;2023-05-16T09:54:52;13.70;;;8.37;;
4889;SDS011;2459;42.268;23.112;2023-05-16T09:57:21;13.67;;;10.00;;
4889;SDS011;2459;42.268;23.112;2023-05-16T09:59:47;14.57;;;8.43;;
4889;SDS011;2459;42.268;23.112;2023-05-16T10:02:15;23.43;;;9.30;;
4889;SDS011;2459;42.268;23.112;2023-05-16T10:04:41;11.27;;;8.40;;
4889;SDS011;2459;42.268;23.112;2023-05-16T10:07:08;13.97;;;8.07;;
4889;SDS011;2459;42.268;23.112;2023-05-16T10:09:35;11.10;;;5.50;;
4889;SDS011;2459;42.268;23.112;2023-05-16T10:12:02;15.40;;;10.13;;
4889;SDS011;2459;42.268;23.112;2023-05-16T10:14:33;22.90;;;9.97;;
4889;SDS011;2459;42.268;23.112;2023-05-16T10:17:00;15.80;;;9.13;;
4889;SDS011;2459;42.268;23.112;2023-05-16T10:19:31;13.57;;;8.13;;
4889;SDS011;2459;42.268;23.112;2023-05-16T10:22:02;17.47;;;8.60;;
4889;SDS011;2459;42.268;23.112;2023-05-16T10:24:31;16.33;;;9.37;;
4889;SDS011;2459;42.268;23.112;2023-05-16T10:27:00;28.33;;;10.27;;
4889;SDS011;2459;42.268;23.112;2023-05-16T10:29:28;19.00;;;9.60;;
4889;SDS011;2459;42.268;23.112;2023-05-16T10:31:56;17.10;;;11.37;;
4889;SDS011;2459;42.268;23.112;2023-05-16T10:34:23;20.40;;;9.00;;
4889;SDS011;2459;42.268;23.112;2023-05-16T10:36:49;14.53;;;10.27;;
4889;SDS011;2459;42.268;23.112;2023-05-16T10:39:16;17.10;;;9.53;;
4889;SDS011;2459;42.268;23.112;2023-05-16T10:41:43;21.90;;;9.03;;
4889;SDS011;2459;42.268;23.112;2023-05-16T10:44:13;17.60;;;9.30;;
4889;SDS011;2459;42.268;23.112;2023-05-16T10:46:41;15.40;;;8.83;;
4889;SDS011;2459;42.268;23.112;2023-05-16T10:49:21;15.47;;;7.43;;
4889;SDS011;2459;42.268;23.112;2023-05-16T10:52:05;24.40;;;8.57;;
4889;SDS011;2459;42.268;23.112;2023-05-16T10:54:35;17.93;;;8.70;;
4889;SDS011;2459;42.268;23.112;2023-05-16T10:57:05;13.77;;;8.43;;
4889;SDS011;2459;42.268;23.112;2023-05-16T10:59:39;25.33;;;9.10;;
4889;SDS011;2459;42.268;23.112;2023-05-16T11:02:19;16.10;;;8.80;;
4889;SDS011;2459;42.268;23.112;2023-05-16T11:04:48;13.20;;;8.90;;
4889;SDS011;2459;42.268;23.112;2023-05-16T11:07:16;25.90;;;9.03;;
4889;SDS011;2459;42.268;23.112;2023-05-16T11:09:43;13.90;;;9.60;;
4889;SDS011;2459;42.268;23.112;2023-05-16T11:12:10;15.77;;;8.63;;
4889;SDS011;2459;42.268;23.112;2023-05-16T11:14:38;13.10;;;7.70;;
4889;SDS011;2459;42.268;23.112;2023-05-16T11:17:06;24.47;;;8.93;;
4889;SDS011;2459;42.268;23.112;2023-05-16T11:19:34;19.23;;;10.30;;
4889;SDS011;2459;42.268;23.112;2023-05-16T11:22:09;15.73;;;9.20;;
4889;SDS011;2459;42.268;23.112;2023-05-16T11:24:37;20.67;;;10.30;;
4889;SDS011;2459;42.268;23.112;2023-05-16T11:27:03;16.73;;;10.17;;
4889;SDS011;2459;42.268;23.112;2023-05-16T11:29:30;21.70;;;9.93;;
4889;SDS011;2459;42.268;23.112;2023-05-16T11:31:57;24.60;;;8.10;;
4889;SDS011;2459;42.268;23.112;2023-05-16T11:34:24;19.17;;;8.83;;
4889;SDS011;2459;42.268;23.112;2023-05-16T11:36:51;25.37;;;10.37;;
4889;SDS011;2459;42.268;23.112;2023-05-16T11:39:19;16.57;;;8.53;;
4889;SDS011;2459;42.268;23.112;2023-05-16T11:41:45;17.53;;;8.90;;
4889;SDS011;2459;42.268;23.112;2023-05-16T11:44:12;12.63;;;8.90;;
4889;SDS011;2459;42.268;23.112;2023-05-16T11:46:38;26.80;;;9.43;;
4889;SDS011;2459;42.268;23.112;2023-05-16T11:49:06;17.17;;;10.57;;
4889;SDS011;2459;42.268;23.112;2023-05-16T11:51:33;16.27;;;7.30;;
4889;SDS011;2459;42.268;23.112;2023-05-16T11:54:00;23.90;;;8.83;;
4889;SDS011;2459;42.268;23.112;2023-05-16T11:56:30;17.10;;;8.33;;
4889;SDS011;2459;42.268;23.112;2023-05-16T11:58:56;17.90;;;9.43;;
4889;SDS011;2459;42.268;23.112;2023-05-16T12:01:23;15.70;;;8.80;;
4889;SDS011;2459;42.268;23.112;2023-05-16T12:03:56;22.20;;;9.90;;
4889;SDS011;2459;42.268;23.112;2023-05-16T12:06:24;15.57;;;10.30;;
4889;SDS011;2459;42.268;23.112;2023-05-16T12:08:51;27.43;;;9.67;;
4889;SDS011;2459;42.268;23.112;2023-05-16T12:11:18;13.83;;;8.57;;
4889;SDS011;2459;42.268;23.112;2023-05-16T12:13:47;14.80;;;8.00;;
4889;SDS011;2459;42.268;23.112;2023-05-16T12:16:13;16.03;;;8.50;;
4889;SDS011;2459;42.268;23.112;2023-05-16T12:18:40;18.90;;;8.73;;
4889;SDS011;2459;42.268;23.112;2023-05-16T12:21:07;17.53;;;8.80;;
4889;SDS011;2459;42.268;23.112;2023-05-16T12:23:33;20.27;;;9.00;;
4889;SDS011;2459;42.268;23.112;2023-05-16T12:26:01;29.47;;;9.13;;
4889;SDS011;2459;42.268;23.112;2023-05-16T12:28:31;15.43;;;7.80;;
4889;SDS011;2459;42.268;23.112;2023-05-16T12:31:00;21.40;;;7.47;;
4889;SDS011;2459;42.268;23.112;2023-05-16T12:33:26;19.10;;;8.10;;
4889;SDS011;2459;42.268;23.112;2023-05-16T12:35:53;26.40;;;8.80;;
4889;SDS011;2459;42.268;23.112;2023-05-16T12:38:19;19.20;;;6.20;;
4889;SDS011;2459;42.268;23.112;2023-05-16T12:40:46;21.47;;;7.87;;
4889;SDS011;2459;42.268;23.112;2023-05-16T12:43:13;14.67;;;6.73;;
4889;SDS011;2459;42.268;23.112;2023-05-16T12:45:40;17.73;;;7.00;;
4889;SDS011;2459;42.268;23.112;2023-05-16T12:48:11;28.50;;;7.30;;
4889;SDS011;2459;42.268;23.112;2023-05-16T12:50:38;21.77;;;6.13;;
4889;SDS011;2459;42.268;23.112;2023-05-16T12:53:09;29.93;;;7.80;;
4889;SDS011;2459;42.268;23.112;2023-05-16T12:55:36;45.57;;;9.50;;
4889;SDS011;2459;42.268;23.112;2023-05-16T12:58:02;26.93;;;6.33;;
4889;SDS011;2459;42.268;23.112;2023-05-16T13:00:30;22.37;;;6.43;;
4889;SDS011;2459;42.268;23.112;2023-05-16T13:02:56;17.47;;;5.97;;
4889;SDS011;2459;42.268;23.112;2023-05-16T13:05:24;30.70;;;7.13;;
4889;SDS011;2459;42.268;23.112;2023-05-16T13:07:51;41.30;;;8.40;;
4889;SDS011;2459;42.268;23.112;2023-05-16T13:10:19;23.00;;;7.50;;
4889;SDS011;2459;42.268;23.112;2023-05-16T13:12:45;14.70;;;6.17;;
4889;SDS011;2459;42.268;23.112;2023-05-16T13:15:12;17.17;;;5.77;;
4889;SDS011;2459;42.268;23.112;2023-05-16T13:17:39;17.60;;;4.67;;
4889;SDS011;2459;42.268;23.112;2023-05-16T13:20:07;27.37;;;8.40;;
4889;SDS011;2459;42.268;23.112;2023-05-16T13:22:35;14.73;;;5.67;;
4889;SDS011;2459;42.268;23.112;2023-05-16T13:25:02;22.10;;;7.00;;
4889;SDS011;2459;42.268;23.112;2023-05-16T13:27:30;15.20;;;6.80;;
4889;SDS011;2459;42.268;23.112;2023-05-16T13:29:56;18.07;;;7.83;;
4889;SDS011;2459;42.268;23.112;2023-05-16T13:32:23;19.63;;;5.47;;
4889;SDS011;2459;42.268;23.112;2023-05-16T13:34:50;16.67;;;5.67;;
4889;SDS011;2459;42.268;23.112;2023-05-16T13:37:16;15.63;;;5.50;;
4889;SDS011;2459;42.268;23.112;2023-05-16T13:39:44;19.50;;;5.23;;
4889;SDS011;2459;42.268;23.112;2023-05-16T13:42:10;21.33;;;5.60;;
4889;SDS011;2459;42.268;23.112;2023-05-16T13:44:37;22.13;;;7.33;;
4889;SDS011;2459;42.268;23.112;2023-05-16T13:47:03;20.33;;;5.80;;
4889;SDS011;2459;42.268;23.112;2023-05-16T13:49:30;16.20;;;6.03;;
4889;SDS011;2459;42.268;23.112;2023-05-16T13:51:56;12.97;;;6.33;;
4889;SDS011;2459;42.268;23.112;2023-05-16T13:54:23;14.40;;;6.10;;
4889;SDS011;2459;42.268;23.112;2023-05-16T13:56:50;26.37;;;7.00;;
4889;SDS011;2459;42.268;23.112;2023-05-16T13:59:17;19.80;;;6.50;;
4889;SDS011;2459;42.268;23.112;2023-05-16T14:01:43;15.07;;;5.93;;
4889;SDS011;2459;42.268;23.112;2023-05-16T14:04:10;19.07;;;6.07;;
4889;SDS011;2459;42.268;23.112;2023-05-16T14:06:36;22.90;;;6.37;;
4889;SDS011;2459;42.268;23.112;2023-05-16T14:09:03;19.80;;;5.70;;
4889;SDS011;2459;42.268;23.112;2023-05-16T14:11:30;20.43;;;6.17;;
4889;SDS011;2459;42.268;23.112;2023-05-16T14:13:58;16.70;;;5.70;;
4889;SDS011;2459;42.268;23.112;2023-05-16T14:16:24;16.13;;;5.83;;
4889;SDS011;2459;42.268;23.112;2023-05-16T14:18:51;16.10;;;7.40;;
4889;SDS011;2459;42.268;23.112;2023-05-16T14:21:18;13.53;;;6.70;;
4889;SDS011;2459;42.268;23.112;2023-05-16T14:23:44;21.93;;;8.20;;
4889;SDS011;2459;42.268;23.112;2023-05-16T14:26:11;11.93;;;7.50;;
4889;SDS011;2459;42.268;23.112;2023-05-16T14:28:37;17.13;;;8.50;;
4889;SDS011;2459;42.268;23.112;2023-05-16T14:31:05;24.37;;;9.50;;
4889;SDS011;2459;42.268;23.112;2023-05-16T14:33:32;14.50;;;9.00;;
4889;SDS011;2459;42.268;23.112;2023-05-16T14:35:58;30.07;;;9.10;;
4889;SDS011;2459;42.268;23.112;2023-05-16T14:38:25;15.60;;;9.10;;
4889;SDS011;2459;42.268;23.112;2023-05-16T14:40:52;27.30;;;9.07;;
4889;SDS011;2459;42.268;23.112;2023-05-16T14:43:18;24.90;;;9.77;;